sensor_id;sensor_type;location;lat;lon;timestamp;pressure;altitude;pressure_sealevel;temperature;humidity
78383;BME280;67668;52.294;4.692;2023-08-17T00:00:16;102256.75;;;21.35;59.35
78383;BME280;67668;52.294;4.692;2023-08-17T00:02:43;102254.44;;;21.32;59.56
78383;BME280;67668;52.294;4.692;2023-08-17T00:05:09;102253.78;;;21.30;59.58
78383;BME280;67668;52.294;4.692;2023-08-17T00:07:35;102248.75;;;21.27;59.61
78383;BME280;67668;52.294;4.692;2023-08-17T00:10:00;102243.72;;;21.24;58.97
78383;BME280;67668;52.294;4.692;2023-08-17T00:12:26;102249.47;;;21.21;59.41
78383;BME280;67668;52.294;4.692;2023-08-17T00:14:51;102246.09;;;21.19;59.49
78383;BME280;67668;52.294;4.692;2023-08-17T00:17:17;102242.06;;;21.14;59.28
78383;BME280;67668;52.294;4.692;2023-08-17T00:19:43;102246.66;;;21.14;59.50
78383;BME280;67668;52.294;4.692;2023-08-17T00:22:08;102245.13;;;21.11;59.33
78383;BME280;67668;52.294;4.692;2023-08-17T00:24:34;102246.47;;;21.07;59.51
78383;BME280;67668;52.294;4.692;2023-08-17T00:27:00;102254.06;;;21.04;59.62
78383;BME280;67668;52.294;4.692;2023-08-17T00:29:25;102247.34;;;21.00;60.03
78383;BME280;67668;52.294;4.692;2023-08-17T00:31:51;102255.59;;;20.98;60.17
78383;BME280;67668;52.294;4.692;2023-08-17T00:34:17;102243.50;;;20.94;60.10
78383;BME280;67668;52.294;4.692;2023-08-17T00:36:43;102250.91;;;20.92;60.05
78383;BME280;67668;52.294;4.692;2023-08-17T00:39:08;102253.94;;;20.89;60.27
78383;BME280;67668;52.294;4.692;2023-08-17T00:41:33;102246.22;;;20.86;60.21
78383;BME280;67668;52.294;4.692;2023-08-17T00:44:00;102250.13;;;20.84;60.42
78383;BME280;67668;52.294;4.692;2023-08-17T00:46:26;102239.50;;;20.82;60.49
78383;BME280;67668;52.294;4.692;2023-08-17T00:48:53;102244.41;;;20.79;60.46
78383;BME280;67668;52.294;4.692;2023-08-17T00:51:22;102245.25;;;20.79;60.42
78383;BME280;67668;52.294;4.692;2023-08-17T00:53:50;102250.81;;;20.78;60.50
78383;BME280;67668;52.294;4.692;2023-08-17T00:56:16;102244.09;;;20.74;60.19
78383;BME280;67668;52.294;4.692;2023-08-17T00:58:42;102239.06;;;20.71;60.42
78383;BME280;67668;52.294;4.692;2023-08-17T01:01:08;102227.63;;;20.69;60.44
78383;BME280;67668;52.294;4.692;2023-08-17T01:03:34;102235.88;;;20.67;60.39
78383;BME280;67668;52.294;4.692;2023-08-17T01:05:59;102230.84;;;20.64;60.68
78383;BME280;67668;52.294;4.692;2023-08-17T01:08:28;102238.09;;;20.63;60.76
78383;BME280;67668;52.294;4.692;2023-08-17T01:11:06;102232.84;;;20.62;60.79
78383;BME280;67668;52.294;4.692;2023-08-17T01:19:32;102233.56;;;20.56;60.73
78383;BME280;67668;52.294;4.692;2023-08-17T01:22:03;102227.69;;;20.52;61.11
78383;BME280;67668;52.294;4.692;2023-08-17T01:24:30;102233.25;;;20.51;60.92
78383;BME280;67668;52.294;4.692;2023-08-17T01:26:55;102229.22;;;20.47;60.57
78383;BME280;67668;52.294;4.692;2023-08-17T01:29:21;102234.94;;;20.44;60.80
78383;BME280;67668;52.294;4.692;2023-08-17T01:35:04;102239.13;;;20.38;61.50
78383;BME280;67668;52.294;4.692;2023-08-17T01:37:34;102235.78;;;20.36;61.69
78383;BME280;67668;52.294;4.692;2023-08-17T01:40:01;102231.09;;;20.30;61.40
78383;BME280;67668;52.294;4.692;2023-08-17T01:42:27;102228.75;;;20.27;61.90
78383;BME280;67668;52.294;4.692;2023-08-17T01:44:53;102233.13;;;20.28;61.83
78383;BME280;67668;52.294;4.692;2023-08-17T01:47:22;102223.50;;;20.26;61.88
78383;BME280;67668;52.294;4.692;2023-08-17T01:49:48;102224.53;;;20.25;61.95
78383;BME280;67668;52.294;4.692;2023-08-17T01:52:14;102222.00;;;20.23;62.09
78383;BME280;67668;52.294;4.692;2023-08-17T01:54:39;102218.66;;;20.21;62.45
78383;BME280;67668;52.294;4.692;2023-08-17T01:57:04;102226.03;;;20.19;61.90
78383;BME280;67668;52.294;4.692;2023-08-17T01:59:31;102220.84;;;20.18;62.05
78383;BME280;67668;52.294;4.692;2023-08-17T02:01:56;102217.47;;;20.16;62.44
78383;BME280;67668;52.294;4.692;2023-08-17T02:04:21;102218.50;;;20.15;62.54
78383;BME280;67668;52.294;4.692;2023-08-17T02:06:47;102218.84;;;20.11;62.57
78383;BME280;67668;52.294;4.692;2023-08-17T02:09:12;102215.47;;;20.09;62.49
78383;BME280;67668;52.294;4.692;2023-08-17T02:11:38;102216.66;;;20.07;62.54
78383;BME280;67668;52.294;4.692;2023-08-17T02:14:04;102211.44;;;20.05;63.01
78383;BME280;67668;52.294;4.692;2023-08-17T02:16:30;102209.94;;;20.03;62.65
78383;BME280;67668;52.294;4.692;2023-08-17T02:18:55;102213.63;;;20.02;62.77
78383;BME280;67668;52.294;4.692;2023-08-17T02:21:20;102211.28;;;19.99;62.74
78383;BME280;67668;52.294;4.692;2023-08-17T02:23:46;102210.78;;;19.95;63.13
78383;BME280;67668;52.294;4.692;2023-08-17T02:26:11;102214.84;;;19.91;63.35
78383;BME280;67668;52.294;4.692;2023-08-17T02:28:37;102214.16;;;19.89;63.40
78383;BME280;67668;52.294;4.692;2023-08-17T02:31:02;102212.50;;;19.88;63.39
78383;BME280;67668;52.294;4.692;2023-08-17T02:33:27;102212.66;;;19.87;63.49
78383;BME280;67668;52.294;4.692;2023-08-17T02:35:53;102227.94;;;19.86;63.47
78383;BME280;67668;52.294;4.692;2023-08-17T02:38:18;102214.84;;;19.83;63.63
78383;BME280;67668;52.294;4.692;2023-08-17T02:40:44;102211.63;;;19.80;63.69
78383;BME280;67668;52.294;4.692;2023-08-17T02:43:09;102211.13;;;19.76;63.61
78383;BME280;67668;52.294;4.692;2023-08-17T02:45:35;102207.78;;;19.74;63.67
78383;BME280;67668;52.294;4.692;2023-08-17T02:48:00;102205.44;;;19.71;64.04
78383;BME280;67668;52.294;4.692;2023-08-17T02:50:25;102210.81;;;19.71;64.02
78383;BME280;67668;52.294;4.692;2023-08-17T02:52:52;102214.50;;;19.70;63.91
78383;BME280;67668;52.294;4.692;2023-08-17T02:55:17;102211.16;;;19.68;63.94
78383;BME280;67668;52.294;4.692;2023-08-17T02:57:43;102207.78;;;19.66;63.75
78383;BME280;67668;52.294;4.692;2023-08-17T03:00:10;102205.44;;;19.63;63.75
78383;BME280;67668;52.294;4.692;2023-08-17T03:02:36;102210.13;;;19.61;63.53
78383;BME280;67668;52.294;4.692;2023-08-17T03:05:03;102199.41;;;19.61;63.87
78383;BME280;67668;52.294;4.692;2023-08-17T03:07:28;102207.59;;;19.59;64.14
78383;BME280;67668;52.294;4.692;2023-08-17T03:09:53;102203.41;;;19.57;64.20
78383;BME280;67668;52.294;4.692;2023-08-17T03:12:19;102193.00;;;19.54;63.84
78383;BME280;67668;52.294;4.692;2023-08-17T03:14:44;102200.41;;;19.52;64.41
78383;BME280;67668;52.294;4.692;2023-08-17T03:17:10;102200.56;;;19.50;64.27
78383;BME280;67668;52.294;4.692;2023-08-17T03:19:35;102205.09;;;19.50;64.42
78383;BME280;67668;52.294;4.692;2023-08-17T03:22:00;102196.19;;;19.49;64.33
78383;BME280;67668;52.294;4.692;2023-08-17T03:24:26;102195.53;;;19.47;64.48
78383;BME280;67668;52.294;4.692;2023-08-17T03:26:51;102197.38;;;19.47;64.12
78383;BME280;67668;52.294;4.692;2023-08-17T03:29:17;102203.06;;;19.44;64.42
78383;BME280;67668;52.294;4.692;2023-08-17T03:31:42;102203.06;;;19.44;64.45
78383;BME280;67668;52.294;4.692;2023-08-17T03:34:08;102205.09;;;19.42;64.46
78383;BME280;67668;52.294;4.692;2023-08-17T03:36:33;102203.72;;;19.38;64.12
78383;BME280;67668;52.294;4.692;2023-08-17T03:38:58;102213.75;;;19.36;64.66
78383;BME280;67668;52.294;4.692;2023-08-17T03:41:24;102206.88;;;19.33;64.75
78383;BME280;67668;52.294;4.692;2023-08-17T03:43:49;102207.06;;;19.32;64.48
78383;BME280;67668;52.294;4.692;2023-08-17T03:46:15;102217.28;;;19.28;64.52
78383;BME280;67668;52.294;4.692;2023-08-17T03:48:40;102213.91;;;19.26;64.64
78383;BME280;67668;52.294;4.692;2023-08-17T03:51:06;102203.34;;;19.25;64.55
78383;BME280;67668;52.294;4.692;2023-08-17T03:53:31;102208.72;;;19.25;64.93
78383;BME280;67668;52.294;4.692;2023-08-17T03:55:56;102199.16;;;19.22;64.71
78383;BME280;67668;52.294;4.692;2023-08-17T03:58:22;102198.31;;;19.22;65.24
78383;BME280;67668;52.294;4.692;2023-08-17T04:00:51;102211.75;;;19.22;65.10
78383;BME280;67668;52.294;4.692;2023-08-17T04:03:17;102206.69;;;19.19;65.33
78383;BME280;67668;52.294;4.692;2023-08-17T04:05:43;102217.59;;;19.17;65.24
78383;BME280;67668;52.294;4.692;2023-08-17T04:08:08;102213.41;;;19.15;65.41
78383;BME280;67668;52.294;4.692;2023-08-17T04:10:34;102214.38;;;19.14;65.55
78383;BME280;67668;52.294;4.692;2023-08-17T04:13:00;102212.69;;;19.13;65.36
78383;BME280;67668;52.294;4.692;2023-08-17T04:15:25;102206.66;;;19.10;65.61
78383;BME280;67668;52.294;4.692;2023-08-17T04:17:50;102212.03;;;19.10;65.63
78383;BME280;67668;52.294;4.692;2023-08-17T04:20:16;102208.69;;;19.08;65.27
78383;BME280;67668;52.294;4.692;2023-08-17T04:22:43;102203.66;;;19.05;65.45
78383;BME280;67668;52.294;4.692;2023-08-17T04:25:08;102207.31;;;19.04;65.29
78383;BME280;67668;52.294;4.692;2023-08-17T04:27:34;102206.63;;;19.02;65.51
78383;BME280;67668;52.294;4.692;2023-08-17T04:30:00;102204.97;;;19.01;65.44
78383;BME280;67668;52.294;4.692;2023-08-17T04:32:26;102197.41;;;18.97;65.71
78383;BME280;67668;52.294;4.692;2023-08-17T04:34:51;102203.63;;;18.97;65.73
78383;BME280;67668;52.294;4.692;2023-08-17T04:37:17;102202.09;;;18.95;65.82
78383;BME280;67668;52.294;4.692;2023-08-17T04:39:42;102205.78;;;18.94;65.77
78383;BME280;67668;52.294;4.692;2023-08-17T04:42:09;102214.69;;;18.94;65.85
78383;BME280;67668;52.294;4.692;2023-08-17T04:44:34;102206.78;;;18.93;66.06
78383;BME280;67668;52.294;4.692;2023-08-17T04:47:00;102202.44;;;18.92;65.81
78383;BME280;67668;52.294;4.692;2023-08-17T04:49:26;102202.59;;;18.90;65.94
78383;BME280;67668;52.294;4.692;2023-08-17T04:51:52;102201.91;;;18.88;65.95
78383;BME280;67668;52.294;4.692;2023-08-17T04:54:19;102202.91;;;18.87;66.23
78383;BME280;67668;52.294;4.692;2023-08-17T04:56:45;102198.38;;;18.88;66.12
78383;BME280;67668;52.294;4.692;2023-08-17T04:59:10;102205.59;;;18.87;66.36
78383;BME280;67668;52.294;4.692;2023-08-17T05:01:35;102194.88;;;18.87;66.45
78383;BME280;67668;52.294;4.692;2023-08-17T05:04:02;102197.53;;;18.87;66.39
78383;BME280;67668;52.294;4.692;2023-08-17T05:06:29;102194.19;;;18.85;66.15
78383;BME280;67668;52.294;4.692;2023-08-17T05:08:54;102199.72;;;18.84;66.41
78383;BME280;67668;52.294;4.692;2023-08-17T05:11:20;102192.84;;;18.81;66.41
78383;BME280;67668;52.294;4.692;2023-08-17T05:13:45;102183.09;;;18.80;66.56
78383;BME280;67668;52.294;4.692;2023-08-17T05:16:10;102190.16;;;18.81;66.66
78383;BME280;67668;52.294;4.692;2023-08-17T05:18:36;102179.56;;;18.80;66.86
78383;BME280;67668;52.294;4.692;2023-08-17T05:21:01;102184.94;;;18.80;67.03
78383;BME280;67668;52.294;4.692;2023-08-17T05:23:27;102185.78;;;18.80;66.56
78383;BME280;67668;52.294;4.692;2023-08-17T05:25:52;102186.94;;;18.78;66.62
78383;BME280;67668;52.294;4.692;2023-08-17T05:28:17;102180.75;;;18.77;66.86
78383;BME280;67668;52.294;4.692;2023-08-17T05:30:43;102177.41;;;18.75;66.81
78383;BME280;67668;52.294;4.692;2023-08-17T05:33:09;102184.59;;;18.75;67.24
78383;BME280;67668;52.294;4.692;2023-08-17T05:35:34;102179.22;;;18.75;67.30
78383;BME280;67668;52.294;4.692;2023-08-17T05:37:59;102188.13;;;18.75;67.21
78383;BME280;67668;52.294;4.692;2023-08-17T05:40:26;102188.13;;;18.75;67.36
78383;BME280;67668;52.294;4.692;2023-08-17T05:42:52;102188.13;;;18.75;67.13
78383;BME280;67668;52.294;4.692;2023-08-17T05:45:18;102190.81;;;18.75;67.54
78383;BME280;67668;52.294;4.692;2023-08-17T05:47:43;102189.97;;;18.75;67.49
78383;BME280;67668;52.294;4.692;2023-08-17T05:50:10;102190.81;;;18.75;67.71
78383;BME280;67668;52.294;4.692;2023-08-17T05:52:36;102189.78;;;18.76;67.61
78383;BME280;67668;52.294;4.692;2023-08-17T05:55:01;102187.94;;;18.77;67.65
78383;BME280;67668;52.294;4.692;2023-08-17T05:57:27;102180.06;;;18.75;67.67
78383;BME280;67668;52.294;4.692;2023-08-17T05:59:53;102189.78;;;18.76;68.26
78383;BME280;67668;52.294;4.692;2023-08-17T06:02:18;102195.16;;;18.76;67.94
78383;BME280;67668;52.294;4.692;2023-08-17T06:04:44;102191.78;;;18.74;67.95
78383;BME280;67668;52.294;4.692;2023-08-17T06:07:09;102194.47;;;18.74;67.97
78383;BME280;67668;52.294;4.692;2023-08-17T06:09:35;102197.16;;;18.74;68.09
78383;BME280;67668;52.294;4.692;2023-08-17T06:12:00;102199.00;;;18.74;68.64
78383;BME280;67668;52.294;4.692;2023-08-17T06:14:26;102198.84;;;18.75;68.77
78383;BME280;67668;52.294;4.692;2023-08-17T06:16:51;102200.50;;;18.76;68.70
78383;BME280;67668;52.294;4.692;2023-08-17T06:19:16;102194.81;;;18.79;68.60
78383;BME280;67668;52.294;4.692;2023-08-17T06:21:42;102203.88;;;18.78;68.68
78383;BME280;67668;52.294;4.692;2023-08-17T06:24:07;102205.56;;;18.79;68.94
78383;BME280;67668;52.294;4.692;2023-08-17T06:26:33;102202.72;;;18.81;68.68
78383;BME280;67668;52.294;4.692;2023-08-17T06:28:58;102202.56;;;18.82;68.64
78383;BME280;67668;52.294;4.692;2023-08-17T06:31:23;102209.59;;;18.83;68.97
78383;BME280;67668;52.294;4.692;2023-08-17T06:33:55;102199.72;;;18.84;68.66
78383;BME280;67668;52.294;4.692;2023-08-17T06:36:21;102210.28;;;18.85;68.93
78383;BME280;67668;52.294;4.692;2023-08-17T06:38:46;102218.16;;;18.87;68.85
78383;BME280;67668;52.294;4.692;2023-08-17T06:41:12;102220.53;;;18.90;68.74
78383;BME280;67668;52.294;4.692;2023-08-17T06:43:37;102224.91;;;18.91;68.85
78383;BME280;67668;52.294;4.692;2023-08-17T06:46:03;102222.06;;;18.92;68.73
78383;BME280;67668;52.294;4.692;2023-08-17T06:48:28;102230.09;;;18.92;68.84
78383;BME280;67668;52.294;4.692;2023-08-17T06:50:54;102225.22;;;18.96;69.07
78383;BME280;67668;52.294;4.692;2023-08-17T06:53:19;102223.25;;;18.98;68.87
78383;BME280;67668;52.294;4.692;2023-08-17T06:55:45;102229.47;;;18.98;68.76
78383;BME280;67668;52.294;4.692;2023-08-17T06:58:10;102220.38;;;18.99;68.76
78383;BME280;67668;52.294;4.692;2023-08-17T07:00:36;102221.91;;;19.02;68.38
78383;BME280;67668;52.294;4.692;2023-08-17T07:03:01;102230.78;;;19.02;68.48
78383;BME280;67668;52.294;4.692;2023-08-17T07:05:27;102225.13;;;19.05;68.65
78383;BME280;67668;52.294;4.692;2023-08-17T07:07:53;102225.94;;;19.06;68.50
78383;BME280;67668;52.294;4.692;2023-08-17T07:10:18;102219.56;;;19.07;68.39
78383;BME280;67668;52.294;4.692;2023-08-17T07:12:44;102226.44;;;19.09;68.19
78383;BME280;67668;52.294;4.692;2023-08-17T07:15:10;102215.56;;;19.11;68.21
78383;BME280;67668;52.294;4.692;2023-08-17T07:17:36;102225.31;;;19.12;68.35
78383;BME280;67668;52.294;4.692;2023-08-17T07:20:05;102223.28;;;19.14;68.18
78383;BME280;67668;52.294;4.692;2023-08-17T07:22:33;102220.44;;;19.16;68.08
78383;BME280;67668;52.294;4.692;2023-08-17T07:24:58;102227.34;;;19.18;68.21
78383;BME280;67668;52.294;4.692;2023-08-17T07:27:23;102235.91;;;19.22;68.36
78383;BME280;67668;52.294;4.692;2023-08-17T07:29:49;102226.66;;;19.24;68.27
78383;BME280;67668;52.294;4.692;2023-08-17T07:32:14;102227.34;;;19.26;68.31
78383;BME280;67668;52.294;4.692;2023-08-17T07:34:40;102236.09;;;19.28;68.18
78383;BME280;67668;52.294;4.692;2023-08-17T07:37:05;102215.94;;;19.32;68.28
78383;BME280;67668;52.294;4.692;2023-08-17T07:39:31;102222.84;;;19.35;67.78
78383;BME280;67668;52.294;4.692;2023-08-17T07:41:57;102233.41;;;19.36;67.93
78383;BME280;67668;52.294;4.692;2023-08-17T07:44:22;102229.56;;;19.39;67.80
78383;BME280;67668;52.294;4.692;2023-08-17T07:46:48;102244.34;;;19.43;67.89
78383;BME280;67668;52.294;4.692;2023-08-17T07:49:13;102227.09;;;19.45;67.92
78383;BME280;67668;52.294;4.692;2023-08-17T07:51:38;102233.78;;;19.49;67.68
78383;BME280;67668;52.294;4.692;2023-08-17T07:54:04;102231.59;;;19.53;67.59
78383;BME280;67668;52.294;4.692;2023-08-17T07:56:29;102223.22;;;19.56;67.61
78383;BME280;67668;52.294;4.692;2023-08-17T07:58:55;102217.50;;;19.59;67.50
78383;BME280;67668;52.294;4.692;2023-08-17T08:01:20;102210.81;;;19.63;67.52
78383;BME280;67668;52.294;4.692;2023-08-17T08:03:46;102208.47;;;19.68;67.54
78383;BME280;67668;52.294;4.692;2023-08-17T08:06:11;102207.59;;;19.76;67.50
78383;BME280;67668;52.294;4.692;2023-08-17T08:08:37;102209.47;;;19.83;67.34
78383;BME280;67668;52.294;4.692;2023-08-17T08:11:03;102205.94;;;19.91;67.94
78383;BME280;67668;52.294;4.692;2023-08-17T08:13:30;102209.44;;;19.99;67.09
78383;BME280;67668;52.294;4.692;2023-08-17T08:15:55;102213.97;;;20.07;66.71
78383;BME280;67668;52.294;4.692;2023-08-17T08:18:21;102226.22;;;20.18;67.53
78383;BME280;67668;52.294;4.692;2023-08-17T08:20:48;102216.16;;;20.28;66.81
78383;BME280;67668;52.294;4.692;2023-08-17T08:23:14;102221.16;;;20.39;66.56
78383;BME280;67668;52.294;4.692;2023-08-17T08:25:39;102218.94;;;20.50;66.36
78383;BME280;67668;52.294;4.692;2023-08-17T08:28:05;102210.34;;;20.63;65.83
78383;BME280;67668;52.294;4.692;2023-08-17T08:30:30;102211.47;;;20.77;65.23
78383;BME280;67668;52.294;4.692;2023-08-17T08:32:55;102209.88;;;20.90;65.06
78383;BME280;67668;52.294;4.692;2023-08-17T08:35:23;102200.56;;;21.01;64.12
78383;BME280;67668;52.294;4.692;2023-08-17T08:37:50;102207.25;;;21.13;63.81
78383;BME280;67668;52.294;4.692;2023-08-17T08:40:16;102212.91;;;21.26;64.34
78383;BME280;67668;52.294;4.692;2023-08-17T08:42:42;102202.22;;;21.41;63.59
78383;BME280;67668;52.294;4.692;2023-08-17T08:45:08;102202.44;;;21.54;63.18
78383;BME280;67668;52.294;4.692;2023-08-17T08:47:36;102206.84;;;21.70;62.61
78383;BME280;67668;52.294;4.692;2023-08-17T08:50:03;102202.53;;;21.83;62.54
78383;BME280;67668;52.294;4.692;2023-08-17T08:52:33;102191.41;;;22.01;63.03
78383;BME280;67668;52.294;4.692;2023-08-17T08:55:11;102191.28;;;22.17;62.57
78383;BME280;67668;52.294;4.692;2023-08-17T08:57:38;102178.06;;;22.37;63.06
78383;BME280;67668;52.294;4.692;2023-08-17T09:00:05;102181.41;;;22.53;61.14
78383;BME280;67668;52.294;4.692;2023-08-17T09:02:31;102180.19;;;22.71;60.73
78383;BME280;67668;52.294;4.692;2023-08-17T09:04:58;102179.53;;;22.83;59.46
78383;BME280;67668;52.294;4.692;2023-08-17T09:07:25;102175.09;;;22.97;59.04
78383;BME280;67668;52.294;4.692;2023-08-17T09:09:52;102181.50;;;23.10;58.23
78383;BME280;67668;52.294;4.692;2023-08-17T09:12:17;102177.06;;;23.24;57.38
78383;BME280;67668;52.294;4.692;2023-08-17T09:14:43;102172.19;;;23.34;57.11
78383;BME280;67668;52.294;4.692;2023-08-17T09:17:09;102180.44;;;23.47;56.75
78383;BME280;67668;52.294;4.692;2023-08-17T09:19:34;102178.47;;;23.56;56.78
78383;BME280;67668;52.294;4.692;2023-08-17T09:22:00;102176.06;;;23.67;56.64
78383;BME280;67668;52.294;4.692;2023-08-17T09:24:36;102175.53;;;23.79;55.45
78383;BME280;67668;52.294;4.692;2023-08-17T09:27:02;102176.88;;;23.89;55.52
78383;BME280;67668;52.294;4.692;2023-08-17T09:29:28;102174.00;;;23.97;55.31
78383;BME280;67668;52.294;4.692;2023-08-17T09:31:57;102172.44;;;24.09;55.37
78383;BME280;67668;52.294;4.692;2023-08-17T09:34:23;102171.72;;;24.22;55.33
78383;BME280;67668;52.294;4.692;2023-08-17T09:36:49;102168.44;;;24.33;54.84
78383;BME280;67668;52.294;4.692;2023-08-17T09:39:19;102166.19;;;24.43;55.13
78383;BME280;67668;52.294;4.692;2023-08-17T09:41:45;102160.03;;;24.56;54.30
78383;BME280;67668;52.294;4.692;2023-08-17T09:44:10;102166.94;;;24.65;54.64
78383;BME280;67668;52.294;4.692;2023-08-17T09:46:36;102161.16;;;24.75;54.59
78383;BME280;67668;52.294;4.692;2023-08-17T09:49:02;102173.31;;;24.85;54.42
78383;BME280;67668;52.294;4.692;2023-08-17T09:51:30;102166.66;;;24.94;54.06
78383;BME280;67668;52.294;4.692;2023-08-17T09:53:56;102167.09;;;25.04;53.22
78383;BME280;67668;52.294;4.692;2023-08-17T09:56:23;102159.19;;;25.16;52.42
78383;BME280;67668;52.294;4.692;2023-08-17T09:58:49;102154.22;;;25.26;52.78
78383;BME280;67668;52.294;4.692;2023-08-17T10:01:15;102145.66;;;25.36;53.17
78383;BME280;67668;52.294;4.692;2023-08-17T10:03:43;102149.88;;;25.45;52.78
78383;BME280;67668;52.294;4.692;2023-08-17T10:06:12;102149.25;;;25.56;51.65
78383;BME280;67668;52.294;4.692;2023-08-17T10:08:49;102154.91;;;25.67;51.63
78383;BME280;67668;52.294;4.692;2023-08-17T10:11:19;102142.59;;;25.78;51.78
78383;BME280;67668;52.294;4.692;2023-08-17T10:14:09;102144.66;;;25.89;50.12
78383;BME280;67668;52.294;4.692;2023-08-17T10:16:45;102150.72;;;25.98;50.19
78383;BME280;67668;52.294;4.692;2023-08-17T10:19:13;102140.03;;;26.09;49.90
78383;BME280;67668;52.294;4.692;2023-08-17T10:21:46;102142.31;;;26.19;49.04
78383;BME280;67668;52.294;4.692;2023-08-17T10:24:13;102147.53;;;26.27;49.50
78383;BME280;67668;52.294;4.692;2023-08-17T10:26:39;102133.72;;;26.35;50.24
78383;BME280;67668;52.294;4.692;2023-08-17T10:29:06;102135.38;;;26.43;49.81
78383;BME280;67668;52.294;4.692;2023-08-17T10:31:34;102139.06;;;26.55;48.92
78383;BME280;67668;52.294;4.692;2023-08-17T10:34:00;102133.41;;;26.63;48.44
78383;BME280;67668;52.294;4.692;2023-08-17T10:36:26;102131.88;;;26.73;49.03
78383;BME280;67668;52.294;4.692;2023-08-17T10:41:49;102138.47;;;26.97;47.83
78383;BME280;67668;52.294;4.692;2023-08-17T10:44:42;102145.47;;;27.11;48.24
78383;BME280;67668;52.294;4.692;2023-08-17T10:50:02;102131.09;;;27.36;47.45
78383;BME280;67668;52.294;4.692;2023-08-17T10:52:35;102127.47;;;27.48;46.92
78383;BME280;67668;52.294;4.692;2023-08-17T10:55:05;102139.50;;;27.59;47.01
78383;BME280;67668;52.294;4.692;2023-08-17T10:57:40;102138.78;;;27.70;46.90
78383;BME280;67668;52.294;4.692;2023-08-17T11:02:54;102129.81;;;27.88;45.68
78383;BME280;67668;52.294;4.692;2023-08-17T11:08:07;102128.59;;;28.08;45.01
78383;BME280;67668;52.294;4.692;2023-08-17T11:10:36;102130.78;;;28.18;45.40
78383;BME280;67668;52.294;4.692;2023-08-17T11:13:03;102120.66;;;28.25;45.52
78383;BME280;67668;52.294;4.692;2023-08-17T11:15:40;102128.28;;;28.35;45.78
78383;BME280;67668;52.294;4.692;2023-08-17T11:18:10;102120.66;;;28.43;44.17
78383;BME280;67668;52.294;4.692;2023-08-17T11:20:38;102118.31;;;28.47;43.94
78383;BME280;67668;52.294;4.692;2023-08-17T11:23:05;102107.06;;;28.55;44.48
78383;BME280;67668;52.294;4.692;2023-08-17T11:25:32;102109.50;;;28.63;44.29
78383;BME280;67668;52.294;4.692;2023-08-17T11:27:59;102107.53;;;28.70;43.87
78383;BME280;67668;52.294;4.692;2023-08-17T11:30:25;102106.38;;;28.78;43.61
78383;BME280;67668;52.294;4.692;2023-08-17T11:32:52;102109.25;;;28.83;43.47
78383;BME280;67668;52.294;4.692;2023-08-17T11:35:18;102107.47;;;28.88;43.65
78383;BME280;67668;52.294;4.692;2023-08-17T11:37:44;102115.94;;;28.98;43.90
78383;BME280;67668;52.294;4.692;2023-08-17T11:40:13;102120.81;;;29.08;43.46
78383;BME280;67668;52.294;4.692;2023-08-17T11:42:38;102117.97;;;29.14;43.44
78383;BME280;67668;52.294;4.692;2023-08-17T11:45:05;102112.19;;;29.22;42.81
78383;BME280;67668;52.294;4.692;2023-08-17T11:47:31;102112.72;;;29.31;42.80
78383;BME280;67668;52.294;4.692;2023-08-17T11:50:01;102110.72;;;29.38;43.40
78383;BME280;67668;52.294;4.692;2023-08-17T11:52:29;102114.38;;;29.44;42.75
78383;BME280;67668;52.294;4.692;2023-08-17T11:54:56;102111.31;;;29.52;43.60
78383;BME280;67668;52.294;4.692;2023-08-17T11:57:21;102109.06;;;29.60;42.44
78383;BME280;67668;52.294;4.692;2023-08-17T11:59:46;102101.34;;;29.69;41.64
78383;BME280;67668;52.294;4.692;2023-08-17T12:02:12;102108.59;;;29.75;42.00
78383;BME280;67668;52.294;4.692;2023-08-17T12:04:37;102100.28;;;29.82;42.06
78383;BME280;67668;52.294;4.692;2023-08-17T12:07:03;102101.84;;;29.89;42.13
78383;BME280;67668;52.294;4.692;2023-08-17T12:09:32;102096.75;;;29.93;41.70
78383;BME280;67668;52.294;4.692;2023-08-17T12:12:01;102100.91;;;29.95;41.33
78383;BME280;67668;52.294;4.692;2023-08-17T12:14:29;102091.97;;;30.00;41.04
78383;BME280;67668;52.294;4.692;2023-08-17T12:16:55;102094.34;;;29.96;41.08
78383;BME280;67668;52.294;4.692;2023-08-17T12:19:21;102095.31;;;30.02;40.75
78383;BME280;67668;52.294;4.692;2023-08-17T12:21:48;102092.31;;;30.03;41.07
78383;BME280;67668;52.294;4.692;2023-08-17T12:24:14;102092.78;;;30.00;40.84
78383;BME280;67668;52.294;4.692;2023-08-17T12:26:43;102092.31;;;30.03;40.42
78383;BME280;67668;52.294;4.692;2023-08-17T12:29:09;102104.06;;;30.04;41.35
78383;BME280;67668;52.294;4.692;2023-08-17T12:31:35;102102.19;;;30.04;40.03
78383;BME280;67668;52.294;4.692;2023-08-17T12:34:01;102107.63;;;30.04;41.29
78383;BME280;67668;52.294;4.692;2023-08-17T12:36:26;102105.63;;;30.00;40.33
78383;BME280;67668;52.294;4.692;2023-08-17T12:38:51;102105.03;;;29.98;40.69
78383;BME280;67668;52.294;4.692;2023-08-17T12:41:17;102099.81;;;29.96;40.68
78383;BME280;67668;52.294;4.692;2023-08-17T12:43:43;102103.84;;;29.94;40.81
78383;BME280;67668;52.294;4.692;2023-08-17T12:46:08;102104.34;;;29.91;40.73
78383;BME280;67668;52.294;4.692;2023-08-17T12:48:33;102098.03;;;29.90;40.65
78383;BME280;67668;52.294;4.692;2023-08-17T12:50:59;102085.69;;;29.88;40.85
78383;BME280;67668;52.294;4.692;2023-08-17T12:53:24;102090.81;;;29.84;40.97
78383;BME280;67668;52.294;4.692;2023-08-17T12:55:50;102094.59;;;29.83;40.26
78383;BME280;67668;52.294;4.692;2023-08-17T12:58:15;102091.38;;;29.74;39.20
78383;BME280;67668;52.294;4.692;2023-08-17T13:00:40;102085.56;;;29.71;40.74
78383;BME280;67668;52.294;4.692;2023-08-17T13:03:06;102082.00;;;29.70;40.37
78383;BME280;67668;52.294;4.692;2023-08-17T13:05:32;102078.44;;;29.70;40.99